Time;durP1;ratioP1;P1;durP2;ratioP2;P2;SDS_P1;SDS_P2;PMS_P1;PMS_P2;Temp;Humidity;BMP_temperature;BMP_pressure;BME280_temperature;BME280_humidity;BME280_pressure;Samples;Min_cycle;Max_cycle;Signal;HPM_P1;HPM_P2
2022/01/01 00:00:12;;;;;;;;;;;13.60;99.90;;;;;;5067753;28;19932;-86
2022/01/01 00:02:41;;;;;;;;;;;13.70;99.90;;;;;;5071918;28;20375;-86
2022/01/01 00:05:10;;;;;;;;;;;13.70;99.90;;;;;;5073527;28;19928;-85
2022/01/01 00:07:41;;;;;;;;;;;13.60;99.90;;;;;;5058831;28;19928;-86
2022/01/01 00:10:09;;;;;;;;;;;13.70;99.90;;;;;;5073392;28;19939;-85
2022/01/01 00:12:39;;;;;;;;;;;13.70;99.90;;;;;;5054061;28;19925;-85
2022/01/01 00:15:07;;;;;;;;;;;13.20;99.90;;;;;;5054922;28;19924;-86
2022/01/01 00:17:34;;;;;;;;;;;13.70;99.90;;;;;;5029631;28;19935;-85
2022/01/01 00:20:03;;;;;;;;;;;13.70;99.90;;;;;;5062027;28;19929;-86
2022/01/01 00:22:32;;;;;;;;;;;13.80;99.90;;;;;;5053581;28;19936;-86
2022/01/01 00:25:00;;;;;;;;;;;13.80;99.90;;;;;;5041111;28;20388;-86
2022/01/01 00:27:27;;;;;;;;;;;13.80;99.90;;;;;;5054639;28;19932;-85
2022/01/01 00:29:54;;;;;;;;;;;13.80;99.90;;;;;;5035182;28;20403;-86
2022/01/01 00:32:23;;;;;;;;;;;13.80;99.90;;;;;;5045902;28;19928;-85
2022/01/01 00:35:03;;;;;;;;;;;13.20;99.90;;;;;;5073736;28;19928;-88
2022/01/01 00:37:31;;;;;;;;;;;13.80;99.90;;;;;;5056294;28;19936;-88
2022/01/01 00:39:59;;;;;;;;;;;13.80;99.90;;;;;;5072194;28;19933;-87
2022/01/01 00:42:27;;;;;;;;;;;13.80;99.90;;;;;;5053445;28;19928;-88
2022/01/01 00:44:55;;;;;;;;;;;13.80;99.90;;;;;;5055938;28;19929;-87
2022/01/01 00:47:23;;;;;;;;;;;14.00;99.90;;;;;;5049606;28;19925;-86
2022/01/01 00:49:51;;;;;;;;;;;14.60;99.90;;;;;;5053889;28;19924;-85
2022/01/01 00:52:19;;;;;;;;;;;13.80;99.90;;;;;;5054786;28;20402;-87
2022/01/01 00:54:46;;;;;;;;;;;13.80;99.90;;;;;;5091747;28;19923;-87
2022/01/01 00:57:14;;;;;;;;;;;13.80;99.90;;;;;;5058002;28;19924;-86
2022/01/01 00:59:41;;;;;;;;;;;13.80;99.90;;;;;;5054319;28;19931;-86
2022/01/01 01:02:09;;;;;;;;;;;13.80;99.90;;;;;;5073277;28;19935;-86
2022/01/01 01:04:37;;;;;;;;;;;13.80;99.90;;;;;;5054786;28;19939;-86
2022/01/01 01:07:04;;;;;;;;;;;13.80;99.90;;;;;;5072938;28;19936;-85
2022/01/01 01:09:32;;;;;;;;;;;12.80;99.90;;;;;;5070574;28;19996;-87
2022/01/01 01:12:00;;;;;;;;;;;13.80;99.90;;;;;;5067190;28;19928;-87
2022/01/01 01:14:28;;;;;;;;;;;14.40;99.90;;;;;;5044983;28;20000;-85
2022/01/01 01:16:57;;;;;;;;;;;13.80;99.90;;;;;;5045764;28;19939;-86
2022/01/01 01:19:25;;;;;;;;;;;13.70;99.90;;;;;;5055468;28;19925;-86
2022/01/01 01:21:53;;;;;;;;;;;13.80;99.90;;;;;;5037287;28;19928;-86
2022/01/01 01:24:23;;;;;;;;;;;13.70;99.90;;;;;;5038557;28;19939;-88
2022/01/01 01:26:53;;;;;;;;;;;13.80;99.90;;;;;;5053282;28;19939;-86
2022/01/01 01:29:21;;;;;;;;;;;14.10;99.90;;;;;;5051006;28;19932;-86
2022/01/01 01:31:48;;;;;;;;;;;13.80;99.90;;;;;;5047812;28;19928;-87
2022/01/01 01:34:16;;;;;;;;;;;13.70;99.90;;;;;;5066506;28;19935;-85
2022/01/01 01:36:43;;;;;;;;;;;13.70;99.90;;;;;;5047199;28;19924;-86
2022/01/01 01:39:11;;;;;;;;;;;13.80;99.90;;;;;;5041207;28;19935;-87
2022/01/01 01:41:38;;;;;;;;;;;12.30;99.90;;;;;;5046530;28;19925;-87
2022/01/01 01:44:25;;;;;;;;;;;13.50;99.90;;;;;;5045314;28;19929;-87
2022/01/01 01:46:53;;;;;;;;;;;13.70;99.90;;;;;;5054845;28;20012;-86
2022/01/01 01:49:21;;;;;;;;;;;13.70;99.90;;;;;;5042694;28;19928;-86
2022/01/01 01:51:49;;;;;;;;;;;13.70;99.90;;;;;;5060222;28;19959;-86
2022/01/01 01:54:18;;;;;;;;;;;13.70;99.90;;;;;;5046913;28;19929;-87
2022/01/01 01:56:47;;;;;;;;;;;13.60;99.90;;;;;;5063452;28;20406;-86
2022/01/01 01:59:15;;;;;;;;;;;13.70;99.90;;;;;;5058028;28;20570;-86
2022/01/01 02:01:43;;;;;;;;;;;13.70;99.90;;;;;;5046596;28;19931;-86
2022/01/01 02:04:11;;;;;;;;;;;13.70;99.90;;;;;;5058619;28;19936;-86
2022/01/01 02:06:39;;;;;;;;;;;12.70;99.90;;;;;;5079996;28;19928;-86
2022/01/01 02:09:08;;;;;;;;;;;13.60;99.90;;;;;;5049745;28;19949;-87
2022/01/01 02:11:36;;;;;;;;;;;13.60;99.90;;;;;;5051736;28;19929;-86
2022/01/01 02:14:13;;;;;;;;;;;13.60;99.90;;;;;;5049673;28;19935;-86
2022/01/01 02:17:08;;;;;;;;;;;13.30;99.90;;;;;;5047289;28;19932;-85
2022/01/01 02:19:56;;;;;;;;;;;13.40;99.90;;;;;;5055741;28;19929;-85
2022/01/01 02:22:24;;;;;;;;;;;13.50;99.90;;;;;;5061410;28;19925;-86
2022/01/01 02:24:51;;;;;;;;;;;13.50;99.90;;;;;;5055558;28;19928;-85
2022/01/01 02:27:19;;;;;;;;;;;13.50;99.90;;;;;;5063597;28;19931;-86
2022/01/01 02:29:46;;;;;;;;;;;13.40;99.90;;;;;;5061982;28;19932;-85
2022/01/01 02:32:14;;;;;;;;;;;13.40;99.90;;;;;;5040279;28;19925;-86
2022/01/01 02:34:42;;;;;;;;;;;13.40;99.90;;;;;;5059396;28;20304;-86
2022/01/01 02:37:09;;;;;;;;;;;13.40;99.90;;;;;;5030149;28;19947;-86
2022/01/01 02:39:37;;;;;;;;;;;13.50;99.90;;;;;;5060569;28;19947;-86
2022/01/01 02:42:06;;;;;;;;;;;13.40;99.90;;;;;;5039597;28;19925;-86
2022/01/01 02:44:34;;;;;;;;;;;13.80;99.90;;;;;;5040501;28;20402;-86
2022/01/01 02:47:01;;;;;;;;;;;13.40;99.90;;;;;;5062489;28;19933;-86
2022/01/01 02:49:29;;;;;;;;;;;13.40;99.90;;;;;;5060904;28;19936;-86
2022/01/01 02:51:56;;;;;;;;;;;13.40;99.90;;;;;;5054848;28;19929;-86
2022/01/01 02:54:24;;;;;;;;;;;13.60;99.90;;;;;;5054571;28;20105;-87
2022/01/01 02:56:51;;;;;;;;;;;13.90;99.90;;;;;;5082445;28;20529;-86
2022/01/01 02:59:19;;;;;;;;;;;13.40;99.90;;;;;;5062986;28;19935;-86
2022/01/01 03:01:46;;;;;;;;;;;12.60;99.90;;;;;;5059110;28;19928;-87
2022/01/01 03:04:14;;;;;;;;;;;13.40;99.90;;;;;;5064649;28;19924;-86
2022/01/01 03:06:41;;;;;;;;;;;13.60;99.90;;;;;;5046789;28;19928;-86
2022/01/01 03:09:08;;;;;;;;;;;13.40;99.90;;;;;;5057131;28;19924;-86
2022/01/01 03:11:36;;;;;;;;;;;13.40;99.90;;;;;;5051436;28;19928;-86
2022/01/01 03:14:03;;;;;;;;;;;13.40;99.90;;;;;;5048236;28;19959;-86
2022/01/01 03:16:31;;;;;;;;;;;13.40;99.90;;;;;;5049228;28;19939;-85
2022/01/01 03:18:59;;;;;;;;;;;13.40;99.90;;;;;;5054680;28;19924;-86
2022/01/01 03:21:26;;;;;;;;;;;13.50;99.90;;;;;;5047450;28;19933;-86
2022/01/01 03:23:53;;;;;;;;;;;13.50;99.90;;;;;;5055194;28;19925;-86
2022/01/01 03:26:21;;;;;;;;;;;13.50;99.90;;;;;;5059648;28;19928;-85
2022/01/01 03:28:48;;;;;;;;;;;13.50;99.90;;;;;;5059603;28;20311;-86
2022/01/01 03:31:15;;;;;;;;;;;14.10;99.90;;;;;;5054013;28;19928;-86
2022/01/01 03:33:43;;;;;;;;;;;13.60;99.90;;;;;;5054965;28;19925;-86
2022/01/01 03:36:10;;;;;;;;;;;13.60;99.90;;;;;;5084060;28;19928;-86
2022/01/01 03:38:38;;;;;;;;;;;13.60;99.90;;;;;;5090684;28;19947;-86
2022/01/01 03:41:05;;;;;;;;;;;13.60;99.90;;;;;;5053121;28;20310;-86
2022/01/01 03:43:32;;;;;;;;;;;13.60;99.90;;;;;;5067174;28;19932;-86
2022/01/01 03:46:00;;;;;;;;;;;13.80;99.90;;;;;;5050804;28;19928;-86
2022/01/01 03:48:27;;;;;;;;;;;13.60;99.90;;;;;;5050757;28;19936;-86
2022/01/01 03:50:55;;;;;;;;;;;13.50;99.90;;;;;;5067653;28;19925;-86
2022/01/01 03:53:24;;;;;;;;;;;13.50;99.90;;;;;;5067434;28;19924;-86
2022/01/01 03:55:52;;;;;;;;;;;13.50;99.90;;;;;;5049801;28;19931;-87
2022/01/01 03:58:19;;;;;;;;;;;13.50;99.90;;;;;;5053182;28;19925;-86
2022/01/01 04:00:47;;;;;;;;;;;12.90;99.90;;;;;;5046723;28;19948;-86
2022/01/01 04:03:17;;;;;;;;;;;13.50;99.90;;;;;;5047362;28;19925;-86
2022/01/01 04:05:45;;;;;;;;;;;13.50;99.90;;;;;;5076040;28;19924;-86
2022/01/01 04:08:13;;;;;;;;;;;13.50;99.90;;;;;;5066841;28;19931;-86
2022/01/01 04:10:41;;;;;;;;;;;13.50;99.90;;;;;;5067420;28;20649;-86
2022/01/01 04:13:09;;;;;;;;;;;12.50;99.90;;;;;;5067207;28;19925;-86
2022/01/01 04:15:37;;;;;;;;;;;13.40;99.90;;;;;;5050285;28;19928;-85
2022/01/01 04:18:13;;;;;;;;;;;13.50;99.90;;;;;;5050804;28;20391;-86
2022/01/01 04:20:41;;;;;;;;;;;13.50;99.90;;;;;;5066559;28;19931;-86
2022/01/01 04:23:10;;;;;;;;;;;13.50;99.90;;;;;;5034278;28;19932;-86
2022/01/01 04:25:38;;;;;;;;;;;13.70;99.90;;;;;;5049659;28;19931;-86
2022/01/01 04:28:05;;;;;;;;;;;13.60;99.90;;;;;;5050023;28;19924;-86
2022/01/01 04:30:33;;;;;;;;;;;13.60;99.90;;;;;;5067193;28;20414;-88
2022/01/01 04:33:00;;;;;;;;;;;13.50;99.90;;;;;;5049726;28;20080;-86
2022/01/01 04:35:28;;;;;;;;;;;13.60;99.90;;;;;;5068534;28;20398;-86
2022/01/01 04:37:55;;;;;;;;;;;13.60;99.90;;;;;;5055568;28;20416;-86
2022/01/01 04:40:22;;;;;;;;;;;13.70;99.90;;;;;;5067926;28;19931;-86
2022/01/01 04:42:50;;;;;;;;;;;13.70;99.90;;;;;;5052905;28;19941;-87
2022/01/01 04:45:18;;;;;;;;;;;13.60;99.90;;;;;;5046010;28;20394;-86
2022/01/01 04:47:46;;;;;;;;;;;14.10;99.90;;;;;;5046546;28;19929;-86
2022/01/01 04:50:13;;;;;;;;;;;13.60;99.90;;;;;;5048817;28;19931;-86
2022/01/01 04:52:42;;;;;;;;;;;13.60;99.90;;;;;;5067641;28;19929;-87
2022/01/01 04:55:10;;;;;;;;;;;13.50;99.90;;;;;;5031920;28;20390;-86
2022/01/01 04:57:38;;;;;;;;;;;13.50;99.90;;;;;;5049744;28;20403;-86
2022/01/01 05:00:05;;;;;;;;;;;13.50;99.90;;;;;;5065778;28;20389;-86
2022/01/01 05:02:33;;;;;;;;;;;13.50;99.90;;;;;;5036431;28;19925;-86
2022/01/01 05:05:00;;;;;;;;;;;13.50;99.90;;;;;;5034524;28;19933;-86
2022/01/01 05:07:28;;;;;;;;;;;13.30;99.90;;;;;;5086026;28;19924;-86
2022/01/01 05:09:55;;;;;;;;;;;13.40;99.90;;;;;;5078421;28;20397;-86
2022/01/01 05:12:22;;;;;;;;;;;13.50;99.90;;;;;;5066037;28;19924;-86
2022/01/01 05:14:50;;;;;;;;;;;13.40;99.90;;;;;;5049565;28;19924;-86
2022/01/01 05:17:18;;;;;;;;;;;13.40;99.90;;;;;;5049513;28;19928;-86
2022/01/01 05:19:45;;;;;;;;;;;13.40;99.90;;;;;;5067419;28;19935;-86
2022/01/01 05:22:13;;;;;;;;;;;13.40;99.90;;;;;;5061034;28;19942;-86
2022/01/01 05:24:40;;;;;;;;;;;13.20;99.90;;;;;;5048458;28;19935;-87
2022/01/01 05:27:08;;;;;;;;;;;13.50;99.90;;;;;;5029473;28;19931;-86
2022/01/01 05:29:35;;;;;;;;;;;13.30;99.90;;;;;;5047632;28;19925;-86
2022/01/01 05:32:03;;;;;;;;;;;13.40;99.90;;;;;;5063886;28;19928;-87
2022/01/01 05:34:30;;;;;;;;;;;13.40;99.90;;;;;;5049420;28;19931;-86
2022/01/01 05:36:57;;;;;;;;;;;13.40;99.90;;;;;;5085763;28;19924;-86
2022/01/01 05:39:25;;;;;;;;;;;13.40;99.90;;;;;;5067477;28;19925;-86
2022/01/01 05:41:54;;;;;;;;;;;13.40;99.90;;;;;;5070106;28;19935;-86
2022/01/01 05:44:22;;;;;;;;;;;13.40;99.90;;;;;;5069047;28;19928;-86
2022/01/01 05:46:50;;;;;;;;;;;13.30;99.90;;;;;;5052805;28;20391;-86
2022/01/01 05:49:18;;;;;;;;;;;13.40;99.90;;;;;;5062195;28;19932;-88
2022/01/01 05:51:45;;;;;;;;;;;13.40;99.90;;;;;;5059306;28;19932;-85
2022/01/01 05:54:13;;;;;;;;;;;13.40;99.90;;;;;;5067598;28;20392;-86
2022/01/01 05:56:40;;;;;;;;;;;13.40;99.90;;;;;;5067210;28;19924;-86
2022/01/01 05:59:07;;;;;;;;;;;13.40;99.90;;;;;;5067517;28;20201;-87
2022/01/01 06:01:35;;;;;;;;;;;13.50;99.90;;;;;;5038572;28;19936;-86
2022/01/01 06:04:03;;;;;;;;;;;13.30;99.90;;;;;;5048042;28;19925;-86
2022/01/01 06:06:30;;;;;;;;;;;13.50;99.90;;;;;;5078200;28;19928;-86
2022/01/01 06:08:58;;;;;;;;;;;12.40;99.90;;;;;;5071752;28;19935;-86
2022/01/01 06:11:26;;;;;;;;;;;13.50;99.90;;;;;;5074547;28;19928;-86
2022/01/01 06:13:53;;;;;;;;;;;13.50;99.90;;;;;;5050653;28;19939;-86
2022/01/01 06:16:21;;;;;;;;;;;13.50;99.90;;;;;;5049994;28;19935;-86
2022/01/01 06:18:48;;;;;;;;;;;13.50;99.90;;;;;;5050159;28;19931;-85
2022/01/01 06:21:16;;;;;;;;;;;13.50;99.90;;;;;;5065111;28;19928;-86
2022/01/01 06:23:43;;;;;;;;;;;13.50;99.90;;;;;;5050518;28;19947;-87
2022/01/01 06:26:11;;;;;;;;;;;13.50;99.90;;;;;;5050670;28;20122;-87
2022/01/01 06:28:38;;;;;;;;;;;13.50;99.90;;;;;;5047771;28;20479;-87
2022/01/01 06:31:05;;;;;;;;;;;13.50;99.90;;;;;;5071339;28;19935;-86
2022/01/01 06:33:33;;;;;;;;;;;13.60;99.90;;;;;;5067857;28;19934;-85
2022/01/01 06:36:00;;;;;;;;;;;13.50;99.90;;;;;;5065438;28;19928;-86
2022/01/01 06:38:28;;;;;;;;;;;13.40;99.90;;;;;;5066804;28;19932;-86
2022/01/01 06:40:55;;;;;;;;;;;13.50;99.90;;;;;;5066619;28;19924;-86
2022/01/01 06:43:23;;;;;;;;;;;13.40;99.90;;;;;;5049843;28;19931;-86
2022/01/01 06:45:51;;;;;;;;;;;13.40;99.90;;;;;;5065756;28;19932;-86
2022/01/01 06:48:18;;;;;;;;;;;13.40;99.90;;;;;;5066444;28;20296;-86
2022/01/01 06:50:45;;;;;;;;;;;13.40;99.90;;;;;;5059632;28;19925;-87
2022/01/01 06:53:13;;;;;;;;;;;13.30;99.90;;;;;;5048209;28;19928;-86
2022/01/01 06:55:41;;;;;;;;;;;13.30;99.90;;;;;;5033412;28;19925;-86
2022/01/01 06:58:08;;;;;;;;;;;13.30;99.90;;;;;;5081602;28;19929;-86
2022/01/01 07:00:36;;;;;;;;;;;13.20;99.90;;;;;;5082463;28;19924;-87
2022/01/01 07:03:03;;;;;;;;;;;13.20;99.90;;;;;;5057420;28;19929;-86
2022/01/01 07:05:31;;;;;;;;;;;13.20;99.90;;;;;;5077059;28;19932;-86
2022/01/01 07:07:58;;;;;;;;;;;13.10;99.90;;;;;;5073941;28;19925;-86
2022/01/01 07:10:26;;;;;;;;;;;13.10;99.90;;;;;;5065960;28;20413;-86
2022/01/01 07:12:53;;;;;;;;;;;13.10;99.90;;;;;;5056052;28;20303;-86
2022/01/01 07:15:20;;;;;;;;;;;13.00;99.90;;;;;;5079188;28;19932;-87
2022/01/01 07:17:48;;;;;;;;;;;13.10;99.90;;;;;;5078606;28;19923;-87
2022/01/01 07:20:15;;;;;;;;;;;12.90;99.90;;;;;;5065639;28;20334;-87
2022/01/01 07:22:44;;;;;;;;;;;12.90;99.90;;;;;;5044773;28;19925;-86
2022/01/01 07:25:12;;;;;;;;;;;12.90;99.90;;;;;;5061127;28;19932;-87
2022/01/01 07:27:40;;;;;;;;;;;12.90;99.90;;;;;;5067067;28;19924;-87
2022/01/01 07:30:08;;;;;;;;;;;12.80;99.90;;;;;;5048216;28;19932;-86
2022/01/01 07:32:42;;;;;;;;;;;12.80;99.90;;;;;;5064705;28;19936;-86
2022/01/01 07:35:10;;;;;;;;;;;12.80;99.90;;;;;;5069830;28;19943;-86
2022/01/01 07:37:37;;;;;;;;;;;12.80;99.90;;;;;;5085645;28;20394;-86
2022/01/01 07:40:06;;;;;;;;;;;12.60;99.90;;;;;;5077756;28;19939;-86
2022/01/01 07:42:34;;;;;;;;;;;12.80;99.90;;;;;;5065877;28;19928;-86
2022/01/01 07:45:01;;;;;;;;;;;12.80;99.90;;;;;;5065955;28;19933;-86
2022/01/01 07:47:29;;;;;;;;;;;12.80;99.90;;;;;;5060382;28;19924;-86
2022/01/01 07:49:57;;;;;;;;;;;12.80;99.90;;;;;;5049395;28;19936;-86
2022/01/01 07:52:24;;;;;;;;;;;12.80;99.90;;;;;;5065315;28;19925;-86
2022/01/01 07:54:52;;;;;;;;;;;12.90;99.90;;;;;;5049581;28;19939;-86
2022/01/01 07:57:19;;;;;;;;;;;11.70;99.90;;;;;;5048964;28;19931;-86
2022/01/01 07:59:47;;;;;;;;;;;12.80;99.90;;;;;;5066639;28;20307;-87
2022/01/01 08:02:14;;;;;;;;;;;12.80;99.90;;;;;;5046783;28;19933;-86
2022/01/01 08:04:42;;;;;;;;;;;12.80;99.90;;;;;;5046658;28;19928;-87
2022/01/01 08:07:10;;;;;;;;;;;13.40;99.90;;;;;;5049828;28;19928;-87
2022/01/01 08:09:57;;;;;;;;;;;12.70;99.90;;;;;;5054253;28;19924;-88
2022/01/01 08:12:25;;;;;;;;;;;12.60;99.90;;;;;;5050123;28;19924;-86
2022/01/01 08:14:56;;;;;;;;;;;12.60;99.90;;;;;;5067062;28;19924;-86
2022/01/01 08:17:24;;;;;;;;;;;12.50;99.90;;;;;;5047730;28;19924;-86
2022/01/01 08:19:52;;;;;;;;;;;12.70;99.90;;;;;;5065144;28;20295;-86
2022/01/01 08:22:19;;;;;;;;;;;12.70;99.90;;;;;;5049807;28;20398;-87
2022/01/01 08:24:47;;;;;;;;;;;12.80;99.90;;;;;;5065221;28;20382;-87
2022/01/01 08:27:14;;;;;;;;;;;12.70;99.90;;;;;;5069023;28;19947;-87
2022/01/01 08:29:41;;;;;;;;;;;12.70;99.90;;;;;;5034564;28;19936;-86
2022/01/01 08:32:09;;;;;;;;;;;12.80;99.90;;;;;;5049467;28;19935;-87
2022/01/01 08:34:37;;;;;;;;;;;12.70;99.90;;;;;;5063266;28;19935;-88
2022/01/01 08:37:04;;;;;;;;;;;12.70;99.90;;;;;;5069849;28;19932;-87
2022/01/01 08:39:32;;;;;;;;;;;12.70;99.90;;;;;;5055061;28;20406;-87
2022/01/01 08:41:59;;;;;;;;;;;11.90;99.90;;;;;;5050258;28;20204;-87
2022/01/01 08:44:27;;;;;;;;;;;12.70;99.90;;;;;;5049257;28;19931;-86
2022/01/01 08:46:55;;;;;;;;;;;12.70;99.90;;;;;;5066767;28;19928;-87
2022/01/01 08:49:22;;;;;;;;;;;12.70;99.90;;;;;;5051771;28;19932;-88
2022/01/01 08:51:50;;;;;;;;;;;12.70;99.90;;;;;;5052415;28;19925;-86
2022/01/01 08:54:17;;;;;;;;;;;12.80;99.90;;;;;;5072101;28;20415;-86
2022/01/01 08:56:45;;;;;;;;;;;12.80;99.90;;;;;;5066280;28;19924;-85
2022/01/01 08:59:12;;;;;;;;;;;12.80;99.90;;;;;;5064541;28;19929;-86
2022/01/01 09:01:40;;;;;;;;;;;12.80;99.90;;;;;;5064700;28;20392;-87
2022/01/01 09:04:07;;;;;;;;;;;12.80;99.90;;;;;;5049596;28;19928;-85
2022/01/01 09:06:35;;;;;;;;;;;12.80;99.90;;;;;;5075871;28;19924;-84
2022/01/01 09:09:02;;;;;;;;;;;12.90;99.90;;;;;;5085259;28;19932;-86
2022/01/01 09:11:29;;;;;;;;;;;12.90;99.90;;;;;;5048541;28;19925;-86
2022/01/01 09:13:57;;;;;;;;;;;12.90;99.90;;;;;;5064856;28;19928;-86
2022/01/01 09:16:29;;;;;;;;;;;13.00;99.90;;;;;;5051759;28;19929;-87
2022/01/01 09:18:57;;;;;;;;;;;13.00;99.90;;;;;;5068484;28;19935;-87
2022/01/01 09:21:27;;;;;;;;;;;12.90;99.90;;;;;;5052386;28;19925;-88
2022/01/01 09:23:54;;;;;;;;;;;13.00;99.90;;;;;;5070018;28;19925;-88
2022/01/01 09:26:22;;;;;;;;;;;13.10;99.90;;;;;;5078781;28;20280;-87
2022/01/01 09:28:49;;;;;;;;;;;13.10;99.90;;;;;;5085715;28;19933;-88
2022/01/01 09:31:17;;;;;;;;;;;13.20;99.90;;;;;;5067818;28;19935;-87
2022/01/01 09:33:44;;;;;;;;;;;13.20;99.90;;;;;;5059708;28;19929;-88
2022/01/01 09:36:14;;;;;;;;;;;13.30;99.90;;;;;;5062782;28;19963;-87
2022/01/01 09:38:42;;;;;;;;;;;13.30;99.90;;;;;;5052869;28;19932;-87
2022/01/01 09:41:10;;;;;;;;;;;13.40;99.90;;;;;;5068171;28;19959;-88
2022/01/01 09:43:37;;;;;;;;;;;13.40;99.90;;;;;;5044549;28;19945;-86
2022/01/01 09:46:05;;;;;;;;;;;12.60;99.90;;;;;;5066290;28;19925;-85
2022/01/01 09:48:32;;;;;;;;;;;13.50;99.90;;;;;;5066367;28;19925;-88
2022/01/01 09:51:01;;;;;;;;;;;13.60;99.90;;;;;;5049521;28;19958;-88
2022/01/01 09:53:29;;;;;;;;;;;13.70;99.90;;;;;;5064896;28;19924;-87
2022/01/01 09:55:58;;;;;;;;;;;13.70;99.90;;;;;;5067813;28;19928;-88
2022/01/01 09:58:26;;;;;;;;;;;13.70;99.90;;;;;;5036135;28;20035;-89
2022/01/01 10:00:54;;;;;;;;;;;13.80;99.90;;;;;;5052757;28;19931;-88
2022/01/01 10:03:27;;;;;;;;;;;13.80;99.90;;;;;;5068281;28;19936;-89
2022/01/01 10:06:03;;;;;;;;;;;13.90;99.90;;;;;;5062824;28;19935;-87
2022/01/01 10:08:30;;;;;;;;;;;13.90;99.90;;;;;;5092202;28;20302;-85
2022/01/01 10:10:58;;;;;;;;;;;14.10;99.90;;;;;;5075278;28;19935;-87
2022/01/01 10:13:26;;;;;;;;;;;14.00;99.90;;;;;;5069028;28;19928;-85
2022/01/01 10:15:54;;;;;;;;;;;13.90;99.90;;;;;;5070016;28;19931;-86
2022/01/01 10:18:26;;;;;;;;;;;14.10;99.90;;;;;;5068827;28;19929;-85
2022/01/01 10:21:02;;;;;;;;;;;14.20;99.90;;;;;;5069131;28;19947;-86
2022/01/01 10:23:31;;;;;;;;;;;14.20;99.90;;;;;;5045897;28;19925;-86
2022/01/01 10:29:04;;;;;;;;;;;14.50;99.90;;;;;;5067028;28;19936;-87
2022/01/01 10:31:32;;;;;;;;;;;14.60;99.90;;;;;;5063934;28;20199;-86
2022/01/01 10:34:00;;;;;;;;;;;14.50;99.90;;;;;;5055879;28;19924;-86
2022/01/01 10:36:29;;;;;;;;;;;14.70;99.90;;;;;;5052261;28;19931;-87
2022/01/01 10:39:06;;;;;;;;;;;14.70;99.90;;;;;;5050863;28;19932;-86
2022/01/01 10:41:43;;;;;;;;;;;14.70;99.90;;;;;;5064708;28;19936;-86
2022/01/01 10:44:12;;;;;;;;;;;14.70;99.90;;;;;;5049533;28;19935;-85
2022/01/01 10:46:40;;;;;;;;;;;14.70;99.90;;;;;;5066684;28;20312;-85
2022/01/01 10:49:35;;;;;;;;;;;15.40;99.90;;;;;;5067624;28;19935;-86
2022/01/01 10:52:22;;;;;;;;;;;14.80;99.90;;;;;;5062973;28;19928;-85
2022/01/01 10:54:49;;;;;;;;;;;14.70;99.90;;;;;;5052784;28;20269;-85
2022/01/01 10:57:37;;;;;;;;;;;14.90;99.90;;;;;;5067402;28;19928;-86
2022/01/01 11:00:04;;;;;;;;;;;15.40;99.90;;;;;;5064846;28;19924;-86
2022/01/01 11:02:33;;;;;;;;;;;14.90;99.90;;;;;;5049071;28;19929;-86
2022/01/01 11:05:02;;;;;;;;;;;15.00;99.90;;;;;;5047440;28;19939;-85
2022/01/01 11:07:29;;;;;;;;;;;15.00;99.90;;;;;;5030074;28;19935;-87
2022/01/01 11:09:57;;;;;;;;;;;15.00;99.90;;;;;;5064842;28;19928;-86
2022/01/01 11:12:27;;;;;;;;;;;15.00;99.90;;;;;;5049155;28;19928;-86
2022/01/01 11:14:55;;;;;;;;;;;15.00;99.90;;;;;;5049374;28;20303;-86
2022/01/01 11:17:23;;;;;;;;;;;15.00;99.90;;;;;;5059076;28;19925;-86
2022/01/01 11:19:51;;;;;;;;;;;15.00;99.90;;;;;;5059904;28;19932;-85
2022/01/01 11:22:21;;;;;;;;;;;15.10;99.90;;;;;;5051809;28;20403;-88
2022/01/01 11:24:49;;;;;;;;;;;15.10;99.90;;;;;;5031909;28;19929;-87
2022/01/01 11:27:17;;;;;;;;;;;15.10;99.90;;;;;;5062643;28;19928;-86
2022/01/01 11:29:49;;;;;;;;;;;14.80;99.90;;;;;;5049397;28;20008;-86
2022/01/01 11:32:21;;;;;;;;;;;15.10;99.90;;;;;;5077828;28;19939;-86
2022/01/01 11:34:52;;;;;;;;;;;15.10;99.90;;;;;;5081297;28;19939;-86
2022/01/01 11:37:22;;;;;;;;;;;14.90;99.90;;;;;;5081572;28;19924;-86
2022/01/01 11:39:53;;;;;;;;;;;15.00;99.90;;;;;;5072649;28;20436;-86
2022/01/01 11:42:23;;;;;;;;;;;15.00;99.90;;;;;;5062802;28;19932;-85
2022/01/01 11:44:55;;;;;;;;;;;14.90;99.90;;;;;;5079507;28;19924;-85
2022/01/01 11:47:24;;;;;;;;;;;15.00;99.90;;;;;;5044455;28;19939;-86
2022/01/01 11:49:53;;;;;;;;;;;15.10;99.90;;;;;;5073361;28;19932;-86
2022/01/01 11:52:34;;;;;;;;;;;15.10;99.90;;;;;;5042002;28;19929;-85
2022/01/01 11:55:03;;;;;;;;;;;15.20;99.90;;;;;;5079303;28;20332;-86
2022/01/01 11:57:32;;;;;;;;;;;14.10;99.90;;;;;;5069430;28;20409;-86
2022/01/01 12:00:12;;;;;;;;;;;15.20;99.90;;;;;;5044587;28;19928;-87
2022/01/01 12:02:43;;;;;;;;;;;15.20;99.90;;;;;;5074445;28;20214;-85
2022/01/01 12:05:16;;;;;;;;;;;15.30;99.90;;;;;;5077144;28;20685;-86
2022/01/01 12:07:44;;;;;;;;;;;15.20;99.90;;;;;;5080013;28;20395;-87
2022/01/01 12:10:13;;;;;;;;;;;15.20;99.90;;;;;;5060603;28;19935;-87
2022/01/01 12:12:47;;;;;;;;;;;15.20;99.90;;;;;;5078710;28;19932;-86
2022/01/01 12:15:22;;;;;;;;;;;15.20;99.90;;;;;;5078086;28;20399;-85
2022/01/01 12:17:50;;;;;;;;;;;15.20;99.90;;;;;;5075448;28;19939;-86
2022/01/01 12:20:19;;;;;;;;;;;15.20;99.90;;;;;;5060179;28;19932;-86
2022/01/01 12:22:47;;;;;;;;;;;15.40;99.90;;;;;;5063742;28;19935;-89
2022/01/01 12:25:30;;;;;;;;;;;15.40;99.90;;;;;;5062535;28;19932;-86
2022/01/01 12:28:03;;;;;;;;;;;15.60;99.90;;;;;;5041838;28;19935;-88
2022/01/01 12:30:32;;;;;;;;;;;15.70;99.90;;;;;;5078883;28;19935;-88
2022/01/01 12:32:59;;;;;;;;;;;15.80;99.90;;;;;;5044939;28;19936;-87
2022/01/01 12:35:46;;;;;;;;;;;15.80;99.90;;;;;;5067092;28;19932;-88
2022/01/01 12:38:21;;;;;;;;;;;15.80;99.90;;;;;;5031256;28;19924;-89
2022/01/01 12:40:56;;;;;;;;;;;15.80;99.90;;;;;;5050558;28;19940;-89
2022/01/01 12:43:24;;;;;;;;;;;15.80;99.90;;;;;;5044235;28;20410;-88
2022/01/01 12:45:52;;;;;;;;;;;15.80;99.90;;;;;;5060810;28;20711;-88
2022/01/01 12:48:24;;;;;;;;;;;15.70;99.90;;;;;;5064506;28;19939;-88
2022/01/01 12:51:03;;;;;;;;;;;15.70;99.90;;;;;;5067998;28;19932;-87
2022/01/01 12:53:31;;;;;;;;;;;15.60;99.90;;;;;;5081797;28;19924;-89
2022/01/01 12:56:03;;;;;;;;;;;14.90;99.90;;;;;;5068242;28;19930;-90
2022/01/01 12:58:38;;;;;;;;;;;15.50;99.90;;;;;;5086220;28;19935;-87
2022/01/01 13:01:26;;;;;;;;;;;15.50;99.90;;;;;;5046769;28;20361;-90
2022/01/01 13:04:00;;;;;;;;;;;15.30;99.90;;;;;;5057600;28;19924;-87
2022/01/01 13:06:31;;;;;;;;;;;15.10;99.90;;;;;;5070370;28;19928;-87
2022/01/01 13:09:05;;;;;;;;;;;15.50;99.90;;;;;;5047930;28;19924;-87
2022/01/01 13:11:33;;;;;;;;;;;15.40;99.90;;;;;;5038660;28;19951;-87
2022/01/01 13:14:01;;;;;;;;;;;15.30;99.90;;;;;;5067846;28;19928;-88
2022/01/01 13:16:29;;;;;;;;;;;15.40;99.90;;;;;;5063917;28;19932;-88
2022/01/01 13:18:57;;;;;;;;;;;15.40;99.90;;;;;;5050389;28;20310;-88
2022/01/01 13:21:25;;;;;;;;;;;15.40;99.90;;;;;;5080710;28;19940;-87
2022/01/01 13:23:53;;;;;;;;;;;15.40;99.90;;;;;;5062955;28;19932;-87
2022/01/01 13:26:21;;;;;;;;;;;15.50;99.90;;;;;;5044610;28;19932;-88
2022/01/01 13:28:49;;;;;;;;;;;15.40;99.90;;;;;;5078060;28;20407;-89
2022/01/01 13:31:19;;;;;;;;;;;15.40;99.90;;;;;;5058543;28;19935;-89
2022/01/01 13:33:48;;;;;;;;;;;15.50;99.90;;;;;;5066002;28;20152;-88
2022/01/01 13:36:32;;;;;;;;;;;15.50;99.90;;;;;;5062372;28;19928;-89
2022/01/01 13:39:07;;;;;;;;;;;15.60;99.90;;;;;;5035095;28;19929;-86
2022/01/01 13:41:42;;;;;;;;;;;17.30;99.90;;;;;;5081080;28;19932;-88
2022/01/01 13:44:19;;;;;;;;;;;15.70;99.90;;;;;;5046494;28;19925;-88
2022/01/01 13:46:47;;;;;;;;;;;15.70;99.90;;;;;;5052073;28;19928;-90
2022/01/01 13:49:14;;;;;;;;;;;15.70;99.90;;;;;;5077183;28;19932;-87
2022/01/01 13:51:42;;;;;;;;;;;15.70;99.90;;;;;;5087415;28;19928;-87
2022/01/01 13:54:13;;;;;;;;;;;15.70;99.90;;;;;;5081407;28;19924;-90
2022/01/01 13:56:40;;;;;;;;;;;15.70;99.90;;;;;;5078592;28;19932;-90
2022/01/01 13:59:10;;;;;;;;;;;15.10;99.90;;;;;;5045073;28;19928;-90
2022/01/01 14:01:43;;;;;;;;;;;15.60;99.90;;;;;;5062975;28;19954;-89
2022/01/01 14:04:10;;;;;;;;;;;14.70;99.90;;;;;;5029034;28;19933;-90
2022/01/01 14:06:38;;;;;;;;;;;15.50;99.90;;;;;;5045133;28;19932;-89
2022/01/01 14:09:06;;;;;;;;;;;15.40;99.90;;;;;;5061852;28;19932;-89
2022/01/01 14:11:35;;;;;;;;;;;15.40;99.90;;;;;;5033640;28;19928;-87
2022/01/01 14:14:11;;;;;;;;;;;15.30;99.90;;;;;;5079200;28;19923;-88
2022/01/01 14:16:42;;;;;;;;;;;15.20;99.90;;;;;;5064206;28;19932;-88
2022/01/01 14:19:15;;;;;;;;;;;15.20;99.90;;;;;;5065889;28;19924;-88
2022/01/01 14:21:43;;;;;;;;;;;15.20;99.90;;;;;;5047272;28;20303;-86
2022/01/01 14:24:12;;;;;;;;;;;15.10;99.90;;;;;;5045399;28;19928;-88
2022/01/01 14:26:40;;;;;;;;;;;14.60;99.90;;;;;;5071137;28;19932;-86
2022/01/01 14:29:08;;;;;;;;;;;15.00;99.90;;;;;;5095236;28;19932;-86